createdAt,value
2019-02-08T00:00:43.613Z,-1.40
2019-02-08T00:03:11.250Z,-1.30
2019-02-08T00:05:38.896Z,-1.30
2019-02-08T00:08:06.543Z,-1.20
2019-02-08T00:10:34.173Z,-1.20
2019-02-08T00:13:01.815Z,-1.10
2019-02-08T00:15:29.510Z,-1.00
2019-02-08T00:17:57.152Z,-1.00
2019-02-08T00:20:24.859Z,-0.90
2019-02-08T00:22:57.242Z,-0.80
2019-02-08T00:25:24.874Z,-0.80
2019-02-08T00:27:52.534Z,-0.60
2019-02-08T00:30:21.796Z,-0.60
2019-02-08T00:32:55.306Z,-0.60
2019-02-08T00:35:23.212Z,-0.60
2019-02-08T00:37:50.854Z,-0.50
2019-02-08T00:40:18.963Z,-0.30
2019-02-08T00:42:46.606Z,-0.40
2019-02-08T00:45:18.514Z,-0.40
2019-02-08T00:47:46.153Z,-0.40
2019-02-08T00:50:18.167Z,-0.50
2019-02-08T00:52:47.685Z,-0.50
2019-02-08T00:55:15.958Z,-0.30
2019-02-08T00:57:43.606Z,-0.30
2019-02-08T01:00:12.106Z,-0.30
2019-02-08T01:02:52.821Z,-0.40
2019-02-08T01:05:21.318Z,-0.40
2019-02-08T01:07:49.135Z,-0.40
2019-02-08T01:10:18.306Z,-0.50
2019-02-08T01:12:46.018Z,-0.60
2019-02-08T01:15:14.895Z,-0.50
2019-02-08T01:17:42.558Z,-0.50
2019-02-08T01:20:11.726Z,-0.50
2019-02-08T01:22:44.282Z,-0.50
2019-02-08T01:25:13.611Z,-0.50
2019-02-08T01:27:41.238Z,-0.50
2019-02-08T01:30:10.422Z,-0.50
2019-02-08T01:32:38.054Z,-0.50
2019-02-08T01:35:06.971Z,-0.60
2019-02-08T01:37:34.602Z,-0.60
2019-02-08T01:40:02.621Z,-0.60
2019-02-08T01:42:32.235Z,-0.60
2019-02-08T01:44:59.878Z,-0.60
2019-02-08T01:47:27.505Z,-0.60
2019-02-08T01:49:55.154Z,-0.70
2019-02-08T01:52:22.787Z,-0.70
2019-02-08T01:54:50.430Z,-0.70
2019-02-08T01:57:18.063Z,-0.70
2019-02-08T01:59:45.710Z,-0.70
2019-02-08T02:02:13.346Z,-0.70
2019-02-08T02:04:40.986Z,-0.70
2019-02-08T02:07:08.619Z,-0.80
2019-02-08T02:09:36.264Z,-0.70
2019-02-08T02:12:03.903Z,-0.70
2019-02-08T02:14:31.555Z,-0.60
2019-02-08T02:16:59.181Z,-0.60
2019-02-08T02:19:26.939Z,-0.60
2019-02-08T02:21:54.575Z,-0.70
2019-02-08T02:24:22.219Z,-0.70
2019-02-08T02:26:49.851Z,-0.60
2019-02-08T02:29:17.500Z,-0.60
2019-02-08T02:31:45.134Z,-0.60
2019-02-08T02:34:12.780Z,-0.50
2019-02-08T02:36:40.415Z,-0.40
2019-02-08T02:39:08.226Z,-0.50
2019-02-08T02:41:35.856Z,-0.60
2019-02-08T02:44:03.503Z,-0.50
2019-02-08T02:46:31.210Z,-0.60
2019-02-08T02:48:58.847Z,-0.60
2019-02-08T02:51:26.493Z,-0.60
2019-02-08T02:53:54.130Z,-0.60
2019-02-08T02:56:21.785Z,-0.60
2019-02-08T02:58:49.407Z,-0.60
2019-02-08T03:01:17.042Z,-0.60
2019-02-08T03:03:44.686Z,-0.50
2019-02-08T03:06:12.330Z,-0.50
2019-02-08T03:08:39.966Z,-0.50
2019-02-08T03:11:07.631Z,-0.50
2019-02-08T03:13:35.263Z,-0.40
2019-02-08T03:16:02.914Z,-0.40
2019-02-08T03:18:30.546Z,-0.50
2019-02-08T03:20:58.205Z,-0.40
2019-02-08T03:23:25.900Z,-0.40
2019-02-08T03:25:53.551Z,-0.30
2019-02-08T03:28:21.175Z,-0.30
2019-02-08T03:30:50.498Z,-0.40
2019-02-08T03:33:18.170Z,-0.40
2019-02-08T03:35:45.819Z,-0.40
2019-02-08T03:38:13.454Z,-0.50
2019-02-08T03:40:41.103Z,-0.40
2019-02-08T03:43:08.808Z,-0.30
2019-02-08T03:45:41.110Z,-0.20
2019-02-08T03:48:09.215Z,-0.30
2019-02-08T03:50:36.867Z,-0.30
2019-02-08T03:53:06.038Z,-0.40
2019-02-08T03:55:33.682Z,-0.40
2019-02-08T03:58:01.319Z,-0.40
2019-02-08T04:00:34.483Z,-0.50
2019-02-08T04:03:03.153Z,-0.50
2019-02-08T04:05:30.795Z,-0.50
2019-02-08T04:07:58.502Z,-0.50
2019-02-08T04:10:26.146Z,-0.50
2019-02-08T04:12:55.800Z,-0.40
2019-02-08T04:15:24.203Z,-0.40
2019-02-08T04:17:52.324Z,-0.40
2019-02-08T04:20:22.262Z,-0.30
2019-02-08T04:22:49.921Z,-0.30
2019-02-08T04:25:17.618Z,-0.30
2019-02-08T04:27:45.327Z,-0.30
2019-02-08T04:30:17.586Z,-0.30
2019-02-08T04:32:45.237Z,-0.20
2019-02-08T04:35:12.943Z,-0.20
2019-02-08T04:37:40.591Z,-0.20
2019-02-08T04:40:09.787Z,-0.20
2019-02-08T04:42:37.435Z,-0.20
2019-02-08T04:45:06.340Z,-0.20
2019-02-08T04:47:33.977Z,-0.20
2019-02-08T04:50:01.616Z,-0.20
2019-02-08T04:52:29.254Z,-0.20
2019-02-08T04:54:56.892Z,-0.10
2019-02-08T04:57:24.536Z,-0.10
2019-02-08T04:59:52.166Z,-0.10
2019-02-08T05:02:19.811Z,-0.10
2019-02-08T05:04:47.443Z,0.00
2019-02-08T05:07:15.086Z,0.00
2019-02-08T05:09:42.720Z,0.00
2019-02-08T05:12:10.366Z,0.10
2019-02-08T05:14:37.983Z,0.10
2019-02-08T05:17:05.638Z,0.00
2019-02-08T05:19:33.265Z,0.00
2019-02-08T05:22:00.896Z,0.10
2019-02-08T05:24:28.531Z,0.10
2019-02-08T05:26:56.160Z,0.10
2019-02-08T05:29:23.798Z,0.10
2019-02-08T05:31:51.428Z,0.10
2019-02-08T05:34:19.072Z,0.00
2019-02-08T05:36:46.702Z,0.00
2019-02-08T05:39:14.338Z,0.00
2019-02-08T05:41:41.971Z,0.00
2019-02-08T05:44:09.615Z,0.00
2019-02-08T05:46:37.240Z,0.00
2019-02-08T05:49:04.947Z,0.00
2019-02-08T05:51:32.575Z,0.00
2019-02-08T05:54:00.218Z,0.00
2019-02-08T05:56:27.846Z,0.00
2019-02-08T05:58:55.490Z,0.10
2019-02-08T06:01:23.129Z,0.10
2019-02-08T06:03:50.794Z,0.10
2019-02-08T06:06:18.430Z,0.10
2019-02-08T06:08:46.070Z,0.10
2019-02-08T06:11:13.699Z,0.10
2019-02-08T06:13:41.351Z,0.10
2019-02-08T06:16:08.967Z,0.10
2019-02-08T06:18:36.625Z,0.20
2019-02-08T06:21:04.331Z,0.20
2019-02-08T06:23:32.035Z,0.10
2019-02-08T06:26:01.951Z,0.20
2019-02-08T06:28:29.627Z,0.20
2019-02-08T06:30:57.290Z,0.20
2019-02-08T06:33:24.918Z,0.20
2019-02-08T06:35:52.556Z,0.20
2019-02-08T06:38:20.182Z,0.10
2019-02-08T06:40:47.847Z,0.10
2019-02-08T06:43:15.735Z,0.10
2019-02-08T06:45:43.434Z,0.10
2019-02-08T06:48:11.536Z,0.10
2019-02-08T06:50:39.246Z,0.10
2019-02-08T06:53:06.947Z,0.10
2019-02-08T06:55:34.587Z,0.20
2019-02-08T06:58:15.963Z,0.30
2019-02-08T07:00:46.779Z,0.20
2019-02-08T07:03:23.187Z,0.30
2019-02-08T07:06:01.655Z,0.30
2019-02-08T07:08:30.922Z,0.30
2019-02-08T07:11:09.026Z,0.30
2019-02-08T07:13:53.358Z,0.40
2019-02-08T07:16:22.639Z,0.40
2019-02-08T07:21:23.802Z,0.40
2019-02-08T07:23:59.253Z,0.50
2019-02-08T07:29:25.991Z,0.50
2019-02-08T07:32:04.512Z,0.50
2019-02-08T07:34:46.034Z,0.60
2019-02-08T07:37:15.406Z,0.60
2019-02-08T07:39:52.358Z,0.70
2019-02-08T07:42:28.367Z,0.70
2019-02-08T07:44:58.923Z,0.80
2019-02-08T07:47:31.319Z,0.80
2019-02-08T07:50:03.615Z,0.90
2019-02-08T07:52:43.309Z,1.00
2019-02-08T07:55:26.500Z,1.00
2019-02-08T07:58:07.866Z,1.00
2019-02-08T08:00:54.031Z,1.00
2019-02-08T08:03:30.118Z,1.10
2019-02-08T08:06:10.324Z,1.10
2019-02-08T08:08:57.567Z,1.10
2019-02-08T08:11:32.637Z,1.20
2019-02-08T08:14:18.243Z,1.30
2019-02-08T08:17:03.851Z,1.40
2019-02-08T08:19:44.986Z,1.50
2019-02-08T08:24:55.749Z,1.70
2019-02-08T08:27:28.386Z,1.90
2019-02-08T08:30:13.082Z,1.90
2019-02-08T08:32:43.259Z,2.20
2019-02-08T08:37:48.875Z,2.80
2019-02-08T08:40:18.027Z,2.80
2019-02-08T08:45:22.206Z,3.00
2019-02-08T08:48:00.404Z,3.10
2019-02-08T08:50:35.358Z,3.30
2019-02-08T08:53:05.439Z,3.50
2019-02-08T08:55:43.739Z,3.50
2019-02-08T08:58:12.966Z,3.80
2019-02-08T09:00:51.358Z,3.80
2019-02-08T09:03:38.314Z,4.00
2019-02-08T09:06:13.184Z,4.10
2019-02-08T09:11:28.286Z,4.10
2019-02-08T09:14:13.974Z,4.20
2019-02-08T09:16:51.782Z,4.20
2019-02-08T09:19:29.733Z,4.20
2019-02-08T09:22:11.090Z,4.40
2019-02-08T09:24:49.254Z,4.40
2019-02-08T09:27:27.474Z,4.60
2019-02-08T09:30:02.426Z,4.70
2019-02-08T09:32:43.983Z,4.80
2019-02-08T09:35:13.168Z,4.90
2019-02-08T09:37:48.350Z,4.80
2019-02-08T09:43:05.598Z,5.20
2019-02-08T09:45:51.251Z,5.20
2019-02-08T09:48:36.898Z,5.30
2019-02-08T09:51:11.754Z,5.40
2019-02-08T09:53:59.629Z,5.40
2019-02-08T09:56:28.811Z,5.60
2019-02-08T09:59:14.742Z,5.70
2019-02-08T10:02:00.722Z,5.80
2019-02-08T10:07:20.205Z,5.90
2019-02-08T10:09:49.391Z,6.20
2019-02-08T10:12:21.282Z,6.30
2019-02-08T10:15:02.686Z,6.40
2019-02-08T10:19:59.232Z,6.80
2019-02-08T10:25:12.608Z,7.10
2019-02-08T10:27:41.771Z,7.30
2019-02-08T10:30:27.738Z,7.10
2019-02-08T10:33:15.647Z,7.20
2019-02-08T10:35:44.835Z,7.30
2019-02-08T10:38:30.699Z,7.60
2019-02-08T10:40:59.881Z,7.20
2019-02-08T10:43:33.090Z,7.50
2019-02-08T10:46:14.485Z,7.20
2019-02-08T10:49:01.607Z,7.20
2019-02-08T10:51:43.034Z,7.50
2019-02-08T10:54:21.495Z,7.90
2019-02-08T10:57:08.912Z,7.70
2019-02-08T10:59:38.078Z,7.50
2019-02-08T11:02:24.030Z,7.20
2019-02-08T11:05:09.695Z,7.20
2019-02-08T11:07:55.447Z,7.80
2019-02-08T11:10:39.604Z,8.00
2019-02-08T11:13:26.079Z,7.80
2019-02-08T11:15:58.155Z,7.90
2019-02-08T11:18:28.978Z,7.90
2019-02-08T11:20:56.605Z,8.00
2019-02-08T11:23:25.198Z,7.80
2019-02-08T11:25:52.822Z,7.80
2019-02-08T11:28:20.481Z,7.60
2019-02-08T11:30:48.108Z,7.50
2019-02-08T11:33:16.642Z,7.50
2019-02-08T11:35:44.271Z,7.30
2019-02-08T11:38:11.927Z,7.10
2019-02-08T11:40:39.542Z,7.20
2019-02-08T11:43:07.187Z,7.10
2019-02-08T11:45:34.818Z,7.20
2019-02-08T11:48:02.463Z,8.10
2019-02-08T11:50:30.091Z,8.70
2019-02-08T11:52:57.739Z,9.70
2019-02-08T11:55:25.375Z,10.40
2019-02-08T11:57:53.024Z,10.40
2019-02-08T12:02:50.642Z,10.90
2019-02-08T12:05:18.274Z,10.90
2019-02-08T12:07:45.982Z,11.00
2019-02-08T12:13:02.006Z,11.70
2019-02-08T12:15:29.707Z,11.20
2019-02-08T12:17:57.355Z,11.20
2019-02-08T12:20:25.067Z,11.00
2019-02-08T12:22:58.781Z,10.80
2019-02-08T12:25:26.481Z,11.00
2019-02-08T12:30:23.010Z,10.10
2019-02-08T12:32:51.639Z,10.40
2019-02-08T12:35:19.282Z,10.90
2019-02-08T12:37:46.914Z,10.60
2019-02-08T12:40:14.636Z,10.30
2019-02-08T12:45:19.518Z,10.00
2019-02-08T12:47:47.387Z,9.50
2019-02-08T12:50:16.002Z,9.40
2019-02-08T12:52:51.775Z,9.60
2019-02-08T12:55:20.079Z,9.40
2019-02-08T12:57:47.875Z,9.20
2019-02-08T13:02:48.726Z,8.70
2019-02-08T13:05:17.139Z,8.60
2019-02-08T13:07:44.770Z,8.60
2019-02-08T13:10:13.941Z,8.40
2019-02-08T13:12:41.571Z,8.40
2019-02-08T13:15:10.687Z,8.40
2019-02-08T13:17:38.318Z,8.30
2019-02-08T13:20:07.739Z,8.20
2019-02-08T13:22:39.915Z,8.20
2019-02-08T13:25:08.427Z,8.20
2019-02-08T13:27:36.060Z,8.30
2019-02-08T13:30:05.252Z,8.50
2019-02-08T13:32:32.872Z,8.60
2019-02-08T13:35:00.522Z,8.60
2019-02-08T13:37:28.151Z,8.60
2019-02-08T13:39:55.790Z,8.60
2019-02-08T13:42:23.423Z,9.00
2019-02-08T13:44:51.050Z,9.30
2019-02-08T13:47:18.686Z,9.40
2019-02-08T13:49:46.326Z,10.00
2019-02-08T13:52:13.979Z,10.70
2019-02-08T13:54:41.606Z,10.60
2019-02-08T13:57:09.256Z,10.70
2019-02-08T13:59:36.891Z,10.80
2019-02-08T14:02:04.546Z,10.80
2019-02-08T14:04:37.198Z,10.60
2019-02-08T14:07:04.889Z,10.90
2019-02-08T14:09:32.570Z,10.50
2019-02-08T14:12:00.211Z,10.80
2019-02-08T14:14:30.483Z,10.80
2019-02-08T14:16:58.131Z,10.30
2019-02-08T14:19:25.758Z,9.60
2019-02-08T14:21:53.407Z,9.30
2019-02-08T14:24:23.018Z,9.20
2019-02-08T14:26:50.664Z,9.20
2019-02-08T14:29:18.286Z,9.10
2019-02-08T14:31:45.927Z,8.90
2019-02-08T14:34:13.554Z,9.00
2019-02-08T14:36:41.204Z,8.90
2019-02-08T14:39:09.302Z,8.70
2019-02-08T14:41:36.946Z,8.70
2019-02-08T14:44:11.572Z,8.50
2019-02-08T14:46:39.234Z,8.50
2019-02-08T14:49:06.871Z,8.40
2019-02-08T14:51:34.503Z,8.40
2019-02-08T14:54:02.146Z,8.30
2019-02-08T14:56:30.869Z,8.40
2019-02-08T14:58:58.704Z,8.30
2019-02-08T15:01:26.326Z,8.40
2019-02-08T15:03:55.930Z,8.40
2019-02-08T15:06:23.554Z,8.30
2019-02-08T15:08:51.198Z,8.20
2019-02-08T15:11:18.826Z,8.20
2019-02-08T15:13:46.470Z,8.10
2019-02-08T15:16:14.097Z,8.10
2019-02-08T15:18:41.750Z,8.00
2019-02-08T15:21:09.395Z,8.00
2019-02-08T15:23:37.964Z,7.90
2019-02-08T15:26:05.599Z,7.80
2019-02-08T15:28:33.263Z,7.80
2019-02-08T15:31:00.888Z,7.80
2019-02-08T15:33:28.602Z,7.70
2019-02-08T15:35:56.235Z,7.70
2019-02-08T15:38:23.880Z,7.60
2019-02-08T15:40:52.654Z,7.60
2019-02-08T15:43:20.899Z,7.60
2019-02-08T15:45:52.550Z,7.50
2019-02-08T15:48:20.229Z,7.50
2019-02-08T15:50:47.939Z,7.40
2019-02-08T15:53:15.785Z,7.30
2019-02-08T15:55:47.709Z,7.30
2019-02-08T15:58:15.531Z,7.30
2019-02-08T16:00:43.155Z,7.20
2019-02-08T16:05:44.051Z,6.70
2019-02-08T16:08:11.679Z,7.10
2019-02-08T16:10:39.386Z,7.00
2019-02-08T16:13:07.018Z,6.90
2019-02-08T16:15:34.659Z,6.80
2019-02-08T16:18:02.285Z,6.70
2019-02-08T16:20:29.996Z,6.70
2019-02-08T16:25:30.217Z,6.40
2019-02-08T16:27:57.984Z,6.30
2019-02-08T16:30:26.790Z,6.30
2019-02-08T16:32:56.415Z,6.20
2019-02-08T16:35:24.430Z,6.20
2019-02-08T16:37:52.537Z,6.10
2019-02-08T16:40:24.470Z,6.00
2019-02-08T16:42:52.108Z,6.00
2019-02-08T16:45:21.119Z,5.90
2019-02-08T16:47:50.219Z,5.80
2019-02-08T16:53:03.766Z,5.70
2019-02-08T16:55:31.402Z,5.70
2019-02-08T16:57:59.036Z,5.60
2019-02-08T17:00:27.758Z,5.60
2019-02-08T17:02:57.397Z,5.50
2019-02-08T17:05:25.610Z,5.50
2019-02-08T17:07:53.234Z,5.40
2019-02-08T17:10:20.876Z,5.40
2019-02-08T17:12:49.403Z,5.30
2019-02-08T17:15:18.583Z,5.20
2019-02-08T17:17:46.207Z,5.20
2019-02-08T17:20:15.394Z,5.20
2019-02-08T17:22:43.026Z,5.10
2019-02-08T17:25:10.686Z,5.10
2019-02-08T17:27:38.314Z,5.00
2019-02-08T17:30:07.506Z,5.00
2019-02-08T17:32:48.534Z,5.00
2019-02-08T17:35:18.402Z,5.00
2019-02-08T17:37:46.034Z,4.90
2019-02-08T17:40:15.203Z,4.90
2019-02-08T17:42:54.981Z,4.90
2019-02-08T17:45:22.682Z,4.90
2019-02-08T17:47:50.589Z,4.90
2019-02-08T17:50:22.213Z,4.80
2019-02-08T17:52:49.971Z,4.80
2019-02-08T17:55:18.975Z,4.80
2019-02-08T17:57:46.798Z,4.80
2019-02-08T18:00:15.971Z,4.70
2019-02-08T18:02:43.615Z,4.70
2019-02-08T18:05:11.614Z,4.70
2019-02-08T18:07:39.259Z,4.60
2019-02-08T18:10:08.431Z,4.60
2019-02-08T18:12:38.051Z,4.60
2019-02-08T18:15:07.234Z,4.50
2019-02-08T18:17:34.867Z,4.50
2019-02-08T18:20:02.771Z,4.40
2019-02-08T18:22:37.593Z,4.40
2019-02-08T18:25:06.293Z,4.30
2019-02-08T18:27:33.926Z,4.30
2019-02-08T18:30:01.554Z,4.20
2019-02-08T18:32:29.203Z,4.20
2019-02-08T18:34:56.834Z,4.10
2019-02-08T18:37:24.549Z,4.10
2019-02-08T18:39:52.179Z,4.00
2019-02-08T18:42:19.827Z,3.90
2019-02-08T18:44:47.454Z,3.90
2019-02-08T18:47:15.111Z,3.90
2019-02-08T18:49:42.719Z,3.80
2019-02-08T18:52:10.801Z,3.80
2019-02-08T18:57:05.802Z,3.60
2019-02-08T18:59:33.448Z,3.50
2019-02-08T19:02:01.079Z,3.50
2019-02-08T19:04:34.502Z,3.40
2019-02-08T19:07:02.134Z,3.30
2019-02-08T19:09:29.779Z,3.30
2019-02-08T19:11:57.407Z,3.30
2019-02-08T19:14:25.057Z,3.30
2019-02-08T19:16:52.679Z,3.20
2019-02-08T19:19:20.323Z,3.10
2019-02-08T19:21:47.946Z,3.00
2019-02-08T19:24:15.590Z,3.10
2019-02-08T19:26:43.227Z,3.10
2019-02-08T19:29:10.866Z,3.10
2019-02-08T19:31:38.494Z,3.10
2019-02-08T19:34:08.083Z,3.10
2019-02-08T19:36:35.706Z,3.10
2019-02-08T19:39:04.887Z,3.20
2019-02-08T19:41:32.519Z,3.20
2019-02-08T19:44:00.171Z,3.20
2019-02-08T19:46:27.807Z,3.20
2019-02-08T19:48:55.454Z,3.20
2019-02-08T19:51:23.087Z,3.20
2019-02-08T19:53:50.734Z,3.20
2019-02-08T19:56:18.363Z,3.30
2019-02-08T19:58:46.004Z,3.30
2019-02-08T20:01:13.634Z,3.20
2019-02-08T20:03:41.278Z,3.20
2019-02-08T20:06:08.983Z,3.10
2019-02-08T20:08:36.627Z,3.00
2019-02-08T20:11:04.326Z,2.90
2019-02-08T20:13:41.007Z,2.90
2019-02-08T20:16:08.634Z,2.80
2019-02-08T20:18:36.274Z,2.80
2019-02-08T20:21:03.983Z,2.80
2019-02-08T20:23:32.590Z,2.70
2019-02-08T20:26:00.221Z,2.70
2019-02-08T20:28:28.251Z,2.70
2019-02-08T20:30:55.895Z,2.70
2019-02-08T20:33:23.530Z,2.70
2019-02-08T20:35:51.171Z,2.70
2019-02-08T20:38:18.800Z,2.70
2019-02-08T20:40:47.712Z,2.60
2019-02-08T20:43:16.311Z,2.60
2019-02-08T20:45:44.026Z,2.60
2019-02-08T20:48:13.190Z,2.50
2019-02-08T20:50:40.830Z,2.60
2019-02-08T20:53:12.499Z,2.50
2019-02-08T20:55:40.214Z,2.50
2019-02-08T20:58:11.378Z,2.50
2019-02-08T21:00:43.283Z,2.60
2019-02-08T21:03:17.634Z,2.70
2019-02-08T21:05:45.656Z,2.80
2019-02-08T21:08:13.552Z,2.80
2019-02-08T21:10:41.257Z,2.80
2019-02-08T21:13:15.867Z,2.80
2019-02-08T21:15:43.576Z,2.90
2019-02-08T21:18:11.205Z,2.90
2019-02-08T21:20:39.062Z,2.90
2019-02-08T21:23:12.702Z,2.80
2019-02-08T21:25:41.110Z,2.80
2019-02-08T21:28:08.742Z,2.80
2019-02-08T21:30:36.362Z,2.70
2019-02-08T21:33:07.182Z,2.60
2019-02-08T21:35:34.877Z,2.50
2019-02-08T21:38:02.513Z,2.40
2019-02-08T21:40:30.650Z,2.30
2019-02-08T21:43:00.312Z,2.20
2019-02-08T21:45:29.478Z,2.20
2019-02-08T21:47:57.115Z,2.10
2019-02-08T21:50:25.010Z,2.00
2019-02-08T21:52:52.818Z,2.00
2019-02-08T21:55:21.518Z,1.90
2019-02-08T21:57:49.166Z,1.90
2019-02-08T22:00:20.974Z,1.80
2019-02-08T22:02:49.519Z,1.80
2019-02-08T22:05:18.023Z,1.70
2019-02-08T22:07:45.733Z,1.70
2019-02-08T22:10:14.355Z,1.70
2019-02-08T22:12:42.926Z,1.60
2019-02-08T22:15:12.089Z,1.60
2019-02-08T22:17:39.808Z,1.60
2019-02-08T22:20:08.977Z,1.60
2019-02-08T22:22:36.610Z,1.40
2019-02-08T22:25:05.794Z,1.50
2019-02-08T22:27:33.459Z,1.50
2019-02-08T22:30:01.165Z,1.50
2019-02-08T22:32:30.783Z,1.50
2019-02-08T22:34:58.402Z,1.50
2019-02-08T22:37:26.039Z,1.40
2019-02-08T22:39:53.667Z,1.40
2019-02-08T22:42:21.310Z,1.30
2019-02-08T22:44:48.932Z,1.30
2019-02-08T22:47:16.567Z,1.20
2019-02-08T22:49:44.226Z,1.30
2019-02-08T22:52:11.867Z,1.30
2019-02-08T22:54:39.513Z,1.30
2019-02-08T22:57:07.137Z,1.30
2019-02-08T22:59:34.778Z,1.20
2019-02-08T23:02:03.650Z,1.20
2019-02-08T23:04:31.294Z,1.20
2019-02-08T23:06:58.923Z,1.20
2019-02-08T23:09:26.566Z,1.10
2019-02-08T23:11:54.214Z,1.10
2019-02-08T23:14:22.762Z,1.20
2019-02-08T23:16:50.407Z,1.10
2019-02-08T23:19:18.030Z,1.10
2019-02-08T23:21:45.661Z,1.20
2019-02-08T23:24:16.711Z,1.10
2019-02-08T23:26:44.342Z,1.10
2019-02-08T23:29:12.065Z,1.10
2019-02-08T23:31:39.694Z,1.10
2019-02-08T23:34:07.343Z,1.10
2019-02-08T23:36:34.963Z,1.10
2019-02-08T23:39:02.600Z,1.10
2019-02-08T23:41:30.234Z,1.10
2019-02-08T23:43:58.807Z,1.10
2019-02-08T23:46:26.441Z,1.10
2019-02-08T23:48:54.075Z,1.10
2019-02-08T23:51:21.709Z,1.00
2019-02-08T23:53:49.334Z,1.00
2019-02-08T23:56:17.413Z,1.00
2019-02-08T23:58:45.199Z,1.00
